Time;durP1;ratioP1;P1;durP2;ratioP2;P2;SDS_P1;SDS_P2;PMS_P1;PMS_P2;Temp;Humidity;BMP_temperature;BMP_pressure;BME280_temperature;BME280_humidity;BME280_pressure;Samples;Min_cycle;Max_cycle;Signal;HPM_P1;HPM_P2
2023/08/16 00:00:14;;;;;;;14.10;5.20;;;;;;;20.96;67.77;100412.30;110104;1276;22427;-62
2023/08/16 00:03:05;;;;;;;13.50;5.30;;;;;;;20.90;67.87;100410.56;110021;1278;22284;-59
2023/08/16 00:05:37;;;;;;;12.00;5.30;;;;;;;20.87;67.94;100411.39;110049;1278;22427;-60
2023/08/16 00:08:08;;;;;;;11.40;4.90;;;;;;;20.84;68.16;100412.33;110110;1278;22915;-61
2023/08/16 00:10:38;;;;;;;15.80;5.20;;;;;;;20.81;68.22;100419.16;110108;1271;22332;-59
2023/08/16 00:13:09;;;;;;;12.40;4.60;;;;;;;20.76;68.49;100420.08;110041;1273;23122;-61
2023/08/16 00:15:40;;;;;;;10.80;4.60;;;;;;;20.71;68.69;100418.73;110053;1271;22323;-61
2023/08/16 00:18:11;;;;;;;13.30;4.90;;;;;;;20.68;68.76;100415.91;110022;1276;22308;-60
2023/08/16 00:20:42;;;;;;;13.20;4.80;;;;;;;20.64;68.92;100417.52;110031;1273;22395;-59
2023/08/16 00:23:13;;;;;;;12.90;4.60;;;;;;;20.60;69.07;100421.31;110046;1272;22559;-59
2023/08/16 00:25:44;;;;;;;11.10;4.80;;;;;;;20.56;68.99;100421.64;110028;1278;22188;-60
2023/08/16 00:28:15;;;;;;;11.50;4.90;;;;;;;20.54;69.17;100423.08;110012;1278;22288;-59
2023/08/16 00:30:45;;;;;;;11.10;4.70;;;;;;;20.50;69.26;100420.41;110031;1276;22424;-59
2023/08/16 00:33:16;;;;;;;12.50;5.40;;;;;;;20.48;69.32;100414.73;110041;1276;22329;-61
2023/08/16 00:35:47;;;;;;;13.40;5.60;;;;;;;20.46;69.38;100416.23;110029;1273;22218;-60
2023/08/16 00:38:18;;;;;;;10.10;4.50;;;;;;;20.42;69.57;100414.90;110054;1264;22162;-61
2023/08/16 00:40:51;;;;;;;11.80;5.50;;;;;;;20.40;69.87;100415.25;109994;1279;22179;-59
2023/08/16 00:43:22;;;;;;;10.80;4.70;;;;;;;20.36;70.09;100417.80;110055;1277;22216;-60
2023/08/16 00:45:53;;;;;;;16.30;6.80;;;;;;;20.32;70.19;100415.55;110048;1279;22976;-60
2023/08/16 00:48:24;;;;;;;12.30;4.30;;;;;;;20.29;70.08;100413.96;110027;1274;22284;-61
2023/08/16 00:50:55;;;;;;;12.10;5.20;;;;;;;20.28;70.03;100416.35;110058;1278;22247;-61
2023/08/16 00:53:28;;;;;;;16.70;5.10;;;;;;;20.25;70.19;100416.04;110047;1278;22320;-62
2023/08/16 00:56:00;;;;;;;13.30;5.30;;;;;;;20.22;70.53;100417.27;109985;1276;22305;-61
2023/08/16 00:58:30;;;;;;;14.30;4.80;;;;;;;20.19;70.35;100416.89;110019;1278;22370;-59
2023/08/16 01:01:02;;;;;;;12.80;4.70;;;;;;;20.16;70.27;100420.73;109951;1270;22525;-62
2023/08/16 01:03:33;;;;;;;11.80;5.50;;;;;;;20.14;70.46;100418.96;110007;1272;22923;-56
2023/08/16 01:06:05;;;;;;;12.20;4.80;;;;;;;20.10;70.59;100419.40;109949;1273;22407;-58
2023/08/16 01:08:36;;;;;;;15.20;4.80;;;;;;;20.07;70.64;100415.95;109963;1267;22401;-57
2023/08/16 01:11:17;;;;;;;12.30;4.90;;;;;;;20.04;70.70;100416.67;109985;1272;23419;-58
2023/08/16 01:13:57;;;;;;;11.10;5.40;;;;;;;20.01;70.92;100420.05;110004;1273;23062;-56
2023/08/16 01:16:27;;;;;;;;;;;;;;;19.97;71.60;100421.99;110045;1273;23015;-59
2023/08/16 01:18:59;;;;;;;11.20;5.50;;;;;;;19.89;71.91;100415.42;110062;1278;23431;-58
2023/08/16 01:21:33;;;;;;;13.30;6.20;;;;;;;19.82;72.22;100416.46;110003;1276;22230;-58
2023/08/16 01:24:14;;;;;;;12.60;5.70;;;;;;;19.69;72.68;100421.04;110017;1273;22252;-57
2023/08/16 01:26:47;;;;;;;13.00;6.30;;;;;;;19.56;73.09;100417.80;110031;1272;22324;-58
2023/08/16 01:29:19;;;;;;;13.70;6.00;;;;;;;19.45;73.37;100413.48;110022;1278;22320;-58
2023/08/16 01:31:50;;;;;;;14.20;6.10;;;;;;;19.41;73.48;100413.02;110025;1273;22430;-58
2023/08/16 01:34:21;;;;;;;18.20;5.90;;;;;;;19.39;73.62;100413.41;110050;1273;22136;-58
2023/08/16 01:36:52;;;;;;;15.00;6.50;;;;;;;19.34;73.72;100414.45;110034;1273;22310;-56
2023/08/16 01:39:23;;;;;;;18.40;6.20;;;;;;;19.30;73.55;100417.86;110012;1276;23014;-58
2023/08/16 01:41:57;;;;;;;23.80;7.30;;;;;;;19.29;73.43;100418.86;109999;1271;22185;-57
2023/08/16 01:44:28;;;;;;;15.90;5.10;;;;;;;19.29;73.32;100422.63;110014;1273;23426;-59
2023/08/16 01:47:00;;;;;;;25.80;6.80;;;;;;;19.27;73.51;100425.46;110048;1278;22524;-57
2023/08/16 01:49:32;;;;;;;11.90;5.50;;;;;;;19.24;74.09;100427.63;110028;1271;22319;-58
2023/08/16 01:52:03;;;;;;;14.30;6.40;;;;;;;19.20;74.47;100432.11;110005;1273;22236;-59
2023/08/16 01:54:35;;;;;;;13.50;5.70;;;;;;;19.17;74.03;100435.65;110016;1273;23033;-60
2023/08/16 01:57:06;;;;;;;13.10;6.60;;;;;;;19.16;74.42;100436.02;109984;1273;22211;-58
2023/08/16 01:59:37;;;;;;;14.50;6.50;;;;;;;19.13;74.21;100429.05;109973;1278;22452;-59
2023/08/16 02:02:08;;;;;;;14.10;6.10;;;;;;;19.13;73.98;100428.70;110014;1278;22907;-56
2023/08/16 02:04:38;;;;;;;13.90;5.90;;;;;;;19.12;74.20;100432.61;110035;1276;22350;-59
2023/08/16 02:07:09;;;;;;;14.80;5.80;;;;;;;19.11;74.41;100434.17;110014;1266;22379;-58
2023/08/16 02:09:40;;;;;;;18.30;7.00;;;;;;;19.10;74.19;100431.67;110001;1278;22437;-57
2023/08/16 02:12:11;;;;;;;11.50;5.70;;;;;;;19.10;74.33;100433.92;110030;1273;22350;-58
2023/08/16 02:14:42;;;;;;;15.70;6.50;;;;;;;19.09;74.90;100440.08;110029;1271;22170;-59
2023/08/16 02:17:13;;;;;;;15.60;7.00;;;;;;;19.08;75.13;100439.88;110015;1274;23310;-59
2023/08/16 02:19:44;;;;;;;18.40;6.60;;;;;;;19.04;75.51;100438.48;109982;1273;22192;-56
2023/08/16 02:22:15;;;;;;;18.10;7.00;;;;;;;19.01;75.88;100439.29;110005;1273;22937;-59
2023/08/16 02:24:45;;;;;;;14.80;7.10;;;;;;;18.99;76.13;100442.52;110004;1273;22929;-58
2023/08/16 02:27:16;;;;;;;16.50;7.10;;;;;;;18.96;76.04;100446.00;110026;1278;22321;-59
2023/08/16 02:29:47;;;;;;;17.80;7.80;;;;;;;18.95;75.84;100444.88;110046;1267;22283;-59
2023/08/16 02:32:18;;;;;;;14.90;7.20;;;;;;;18.94;76.33;100447.41;110032;1278;22295;-58
2023/08/16 02:34:49;;;;;;;14.50;7.10;;;;;;;18.89;76.62;100452.05;110052;1273;22314;-56
2023/08/16 02:37:20;;;;;;;14.20;6.40;;;;;;;18.78;76.82;100452.02;110049;1273;22131;-59
2023/08/16 02:39:51;;;;;;;20.80;6.80;;;;;;;18.68;76.95;100451.66;110010;1276;22174;-59
2023/08/16 02:42:23;;;;;;;18.20;6.90;;;;;;;18.61;77.14;100448.95;110019;1271;22220;-58
2023/08/16 02:44:53;;;;;;;18.90;6.80;;;;;;;18.52;77.10;100445.44;110018;1273;22138;-59
2023/08/16 02:47:24;;;;;;;19.50;7.90;;;;;;;18.52;76.94;100439.90;110001;1279;22162;-58
2023/08/16 02:49:55;;;;;;;18.10;7.00;;;;;;;18.52;77.24;100442.61;110028;1273;23316;-59
2023/08/16 02:52:26;;;;;;;18.70;6.70;;;;;;;18.50;77.30;100444.74;110045;1273;22147;-58
2023/08/16 02:54:57;;;;;;;19.30;6.80;;;;;;;18.46;77.32;100442.48;109988;1273;22351;-56
2023/08/16 02:57:28;;;;;;;20.30;6.80;;;;;;;18.43;77.51;100442.54;110012;1273;22237;-58
2023/08/16 02:59:59;;;;;;;17.90;6.60;;;;;;;18.40;77.73;100443.53;110003;1273;22898;-58
2023/08/16 03:02:32;;;;;;;17.00;7.10;;;;;;;18.33;78.19;100452.64;109986;1273;22344;-57
2023/08/16 03:05:03;;;;;;;18.50;7.00;;;;;;;18.22;77.95;100446.17;110021;1273;22377;-58
2023/08/16 03:07:35;;;;;;;18.20;7.40;;;;;;;18.19;78.09;100446.24;109994;1273;22419;-58
2023/08/16 03:10:08;;;;;;;26.30;7.70;;;;;;;18.16;78.17;100450.69;110010;1273;22239;-58
2023/08/16 03:12:39;;;;;;;18.90;7.80;;;;;;;18.14;78.02;100453.59;110018;1273;22407;-58
2023/08/16 03:15:11;;;;;;;19.60;7.80;;;;;;;18.15;78.00;100454.09;110009;1274;22315;-56
2023/08/16 03:17:42;;;;;;;18.20;7.40;;;;;;;18.13;78.22;100459.25;109985;1273;22211;-57
2023/08/16 03:20:13;;;;;;;13.30;5.50;;;;;;;18.10;78.27;100450.84;109979;1276;22400;-59
2023/08/16 03:22:44;;;;;;;20.90;8.80;;;;;;;18.10;78.36;100453.92;110033;1273;22229;-58
2023/08/16 03:25:17;;;;;;;33.70;7.70;;;;;;;18.04;78.85;100461.27;110049;1273;22142;-59
2023/08/16 03:27:48;;;;;;;28.00;8.10;;;;;;;17.96;78.58;100463.13;110013;1273;22317;-56
2023/08/16 03:30:18;;;;;;;27.90;8.70;;;;;;;17.95;79.08;100464.16;110026;1272;22258;-58
2023/08/16 03:32:49;;;;;;;21.80;7.90;;;;;;;17.93;78.84;100462.94;110024;1275;22457;-57
2023/08/16 03:35:20;;;;;;;21.90;7.40;;;;;;;17.95;79.07;100463.70;110000;1272;22420;-58
2023/08/16 03:37:51;;;;;;;22.40;7.70;;;;;;;17.93;78.87;100463.97;109994;1274;22793;-56
2023/08/16 03:40:22;;;;;;;17.80;6.70;;;;;;;17.95;78.65;100461.03;110017;1272;22404;-58
2023/08/16 03:42:53;;;;;;;19.50;6.70;;;;;;;17.97;78.62;100456.90;110041;1271;22160;-56
2023/08/16 03:45:25;;;;;;;22.40;7.40;;;;;;;17.98;78.65;100455.16;109980;1273;22251;-58
2023/08/16 03:47:57;;;;;;;16.20;7.50;;;;;;;17.99;78.66;100451.23;110034;1273;23402;-59
2023/08/16 03:50:28;;;;;;;17.50;7.80;;;;;;;18.01;79.12;100451.43;109988;1272;22374;-57
2023/08/16 03:52:59;;;;;;;19.20;8.00;;;;;;;18.01;79.71;100455.84;109981;1279;22258;-57
2023/08/16 03:55:30;;;;;;;15.40;7.90;;;;;;;18.00;79.48;100455.86;110010;1279;22163;-58
2023/08/16 03:58:01;;;;;;;20.50;8.60;;;;;;;17.99;79.61;100456.58;110018;1278;22236;-57
2023/08/16 04:00:32;;;;;;;20.60;8.90;;;;;;;17.99;79.76;100456.48;110020;1273;22298;-57
2023/08/16 04:03:04;;;;;;;18.10;7.80;;;;;;;17.98;80.55;100465.98;110036;1271;22228;-56
2023/08/16 04:05:35;;;;;;;17.40;7.20;;;;;;;17.93;80.74;100467.91;110028;1273;22213;-59
2023/08/16 04:08:06;;;;;;;15.60;7.40;;;;;;;17.91;80.60;100465.32;109968;1271;22155;-59
2023/08/16 04:10:37;;;;;;;18.70;8.40;;;;;;;17.91;81.11;100474.20;109985;1273;22436;-59
2023/08/16 04:13:08;;;;;;;15.50;7.00;;;;;;;17.86;81.21;100480.66;110018;1271;22988;-57
2023/08/16 04:15:38;;;;;;;20.50;7.70;;;;;;;17.78;81.27;100480.80;110000;1271;22314;-59
2023/08/16 04:18:10;;;;;;;21.00;8.40;;;;;;;17.76;81.46;100484.67;110018;1275;23247;-57
2023/08/16 04:20:41;;;;;;;23.00;8.50;;;;;;;17.75;81.46;100479.50;110011;1276;22431;-59
2023/08/16 04:23:12;;;;;;;19.60;8.10;;;;;;;17.75;81.75;100482.02;110016;1278;22266;-59
2023/08/16 04:25:43;;;;;;;23.00;8.20;;;;;;;17.75;82.03;100496.95;109999;1271;22557;-58
2023/08/16 04:28:14;;;;;;;15.60;6.90;;;;;;;17.68;82.50;100510.09;109978;1272;22268;-59
2023/08/16 04:30:45;;;;;;;19.40;8.20;;;;;;;17.58;82.57;100507.62;109967;1271;22187;-58
2023/08/16 04:33:16;;;;;;;19.80;8.00;;;;;;;17.58;82.80;100505.67;110040;1273;22253;-59
2023/08/16 04:35:47;;;;;;;15.60;7.70;;;;;;;17.59;83.06;100505.45;110015;1273;23453;-59
2023/08/16 04:38:18;;;;;;;18.40;9.00;;;;;;;17.60;83.43;100506.59;110004;1274;22316;-59
2023/08/16 04:40:50;;;;;;;17.80;8.80;;;;;;;17.62;83.71;100508.58;109991;1271;22152;-56
2023/08/16 04:43:21;;;;;;;16.20;8.80;;;;;;;17.64;83.95;100507.54;110029;1272;22216;-59
2023/08/16 04:45:52;;;;;;;19.90;9.00;;;;;;;17.69;83.70;100507.52;110038;1274;22531;-58
2023/08/16 04:48:23;;;;;;;18.20;7.50;;;;;;;17.76;83.52;100509.79;110001;1278;22633;-57
2023/08/16 04:50:54;;;;;;;16.10;7.60;;;;;;;17.83;83.38;100505.67;110032;1273;22399;-59
2023/08/16 04:53:24;;;;;;;18.60;7.80;;;;;;;17.91;83.57;100508.56;110047;1267;22213;-58
2023/08/16 04:55:55;;;;;;;14.30;7.00;;;;;;;17.98;83.28;100515.80;109979;1272;22210;-60
2023/08/16 04:58:26;;;;;;;20.50;8.10;;;;;;;18.06;83.34;100517.70;109999;1272;23046;-60
2023/08/16 05:00:57;;;;;;;17.80;6.10;;;;;;;18.13;83.93;100520.63;110011;1273;22633;-63
2023/08/16 05:03:28;;;;;;;25.90;8.00;;;;;;;18.23;84.10;100526.11;110026;1274;22374;-59
2023/08/16 05:06:03;;;;;;;16.60;7.50;;;;;;;18.33;84.07;100526.33;109999;1274;22373;-60
2023/08/16 05:08:34;;;;;;;17.70;7.40;;;;;;;18.43;84.51;100522.00;110019;1276;22601;-59
2023/08/16 05:11:05;;;;;;;16.40;8.20;;;;;;;18.56;84.65;100517.42;110044;1278;22407;-60
2023/08/16 05:13:36;;;;;;;21.50;8.50;;;;;;;18.67;84.70;100520.98;110022;1264;22179;-61
2023/08/16 05:16:07;;;;;;;19.70;7.90;;;;;;;18.74;84.62;100519.94;110012;1273;22160;-59
2023/08/16 05:18:37;;;;;;;18.60;8.60;;;;;;;18.82;84.57;100520.83;110010;1278;22386;-60
2023/08/16 05:21:08;;;;;;;19.70;7.30;;;;;;;18.92;84.82;100525.15;110013;1274;22173;-60
2023/08/16 05:23:39;;;;;;;17.70;7.40;;;;;;;19.02;84.99;100523.77;110017;1273;22218;-61
2023/08/16 05:26:10;;;;;;;16.80;8.20;;;;;;;19.12;85.24;100522.30;110048;1271;22388;-61
2023/08/16 05:28:41;;;;;;;24.40;9.30;;;;;;;19.24;85.48;100518.63;110071;1274;22347;-60
2023/08/16 05:31:13;;;;;;;16.70;8.50;;;;;;;19.37;85.45;100520.13;110066;1274;22215;-60
2023/08/16 05:33:43;;;;;;;18.90;9.10;;;;;;;19.48;85.43;100521.39;110039;1279;22882;-61
2023/08/16 05:36:15;;;;;;;21.30;8.50;;;;;;;19.57;85.56;100524.31;110043;1273;22330;-61
2023/08/16 05:38:47;;;;;;;21.00;8.00;;;;;;;19.67;85.68;100523.19;110040;1274;22169;-61
2023/08/16 05:41:17;;;;;;;18.30;8.00;;;;;;;19.76;85.78;100524.88;110045;1274;22227;-61
2023/08/16 05:43:48;;;;;;;26.00;8.30;;;;;;;19.84;85.62;100524.14;110052;1277;22268;-61
2023/08/16 05:46:19;;;;;;;17.40;7.60;;;;;;;19.94;85.71;100525.14;110042;1272;22196;-59
2023/08/16 05:48:50;;;;;;;18.40;7.40;;;;;;;20.05;85.79;100524.49;110035;1272;22517;-61
2023/08/16 05:51:21;;;;;;;18.70;8.60;;;;;;;20.17;85.95;100527.30;110033;1271;23028;-61
2023/08/16 05:53:51;;;;;;;20.40;8.00;;;;;;;20.30;86.02;100529.83;110050;1273;22339;-60
2023/08/16 05:56:22;;;;;;;16.70;8.00;;;;;;;20.42;86.11;100531.02;110052;1279;22984;-61
2023/08/16 05:58:53;;;;;;;15.70;7.10;;;;;;;20.54;86.21;100531.69;110032;1278;23251;-60
2023/08/16 06:01:24;;;;;;;20.10;8.70;;;;;;;20.66;86.32;100536.16;110020;1274;22268;-60
2023/08/16 06:03:55;;;;;;;18.40;7.00;;;;;;;20.80;86.28;100541.08;110045;1278;22320;-61
2023/08/16 06:06:26;;;;;;;14.50;7.00;;;;;;;20.92;86.43;100543.02;110016;1271;22228;-60
2023/08/16 06:08:57;;;;;;;19.00;6.50;;;;;;;21.04;86.54;100541.95;110026;1271;22343;-61
2023/08/16 06:11:28;;;;;;;21.50;7.80;;;;;;;21.16;86.25;100546.37;110035;1276;22145;-62
2023/08/16 06:14:00;;;;;;;15.00;7.20;;;;;;;21.29;86.20;100547.92;110022;1273;22255;-62
2023/08/16 06:16:31;;;;;;;19.30;8.10;;;;;;;21.45;86.19;100548.59;110013;1274;22168;-62
2023/08/16 06:19:02;;;;;;;17.90;7.30;;;;;;;21.58;86.05;100550.89;110046;1273;22145;-61
2023/08/16 06:21:33;;;;;;;16.80;7.60;;;;;;;21.72;85.86;100543.61;110016;1278;23073;-64
2023/08/16 06:24:04;;;;;;;20.50;8.20;;;;;;;21.86;85.61;100552.86;110019;1279;22196;-62
2023/08/16 06:26:35;;;;;;;14.60;6.60;;;;;;;21.98;85.34;100548.54;110033;1274;22164;-62
2023/08/16 06:29:06;;;;;;;14.80;7.20;;;;;;;22.10;85.08;100553.06;110019;1279;23070;-62
2023/08/16 06:31:37;;;;;;;17.40;8.10;;;;;;;22.21;84.75;100553.07;110015;1271;23035;-63
2023/08/16 06:34:08;;;;;;;15.80;6.40;;;;;;;22.31;84.46;100553.86;110046;1264;22327;-63
2023/08/16 06:36:40;;;;;;;17.60;8.10;;;;;;;22.42;84.34;100546.88;110054;1273;22324;-63
2023/08/16 06:39:11;;;;;;;19.50;7.80;;;;;;;22.54;84.39;100551.20;110025;1271;22224;-63
2023/08/16 06:41:42;;;;;;;15.60;7.60;;;;;;;22.66;84.31;100548.07;110042;1274;23481;-63
2023/08/16 06:44:13;;;;;;;16.10;7.30;;;;;;;22.79;83.93;100550.21;110009;1273;22354;-62
2023/08/16 06:46:44;;;;;;;25.20;8.70;;;;;;;22.89;83.19;100543.70;110050;1279;22206;-63
2023/08/16 06:49:15;;;;;;;15.90;8.20;;;;;;;22.97;82.86;100544.41;110028;1273;23105;-62
2023/08/16 06:52:07;;;;;;;15.60;7.60;;;;;;;23.07;82.62;100546.11;109950;1273;22315;-63
2023/08/16 06:54:40;;;;;;;19.50;7.50;;;;;;;23.17;82.36;100545.61;109959;1271;22300;-62
2023/08/16 06:57:11;;;;;;;15.90;7.90;;;;;;;23.27;82.62;100544.20;110040;1274;22354;-62
2023/08/16 06:59:42;;;;;;;19.60;8.60;;;;;;;23.39;82.43;100545.81;110012;1278;22361;-63
2023/08/16 07:02:14;;;;;;;22.20;8.70;;;;;;;23.50;82.19;100545.19;110055;1273;22264;-62
2023/08/16 07:04:45;;;;;;;20.60;8.50;;;;;;;23.61;81.91;100543.88;110063;1273;23018;-61
2023/08/16 07:07:18;;;;;;;15.70;8.30;;;;;;;23.71;81.70;100547.10;110028;1279;22330;-62
2023/08/16 07:09:49;;;;;;;19.80;9.10;;;;;;;23.80;81.25;100545.79;110024;1276;22172;-66
2023/08/16 07:12:21;;;;;;;18.00;9.10;;;;;;;23.87;80.91;100545.88;109990;1265;22382;-63
2023/08/16 07:14:52;;;;;;;19.90;9.10;;;;;;;23.95;80.79;100544.27;110060;1279;22174;-63
2023/08/16 07:17:23;;;;;;;17.60;8.70;;;;;;;24.04;80.42;100544.73;110070;1271;22237;-62
2023/08/16 07:19:54;;;;;;;18.70;9.20;;;;;;;24.12;80.18;100543.52;110017;1273;23642;-62
2023/08/16 07:22:27;;;;;;;16.90;9.50;;;;;;;24.21;80.04;100536.80;110015;1273;22982;-62
2023/08/16 07:24:58;;;;;;;18.50;9.10;;;;;;;24.29;79.83;100538.45;110034;1278;22220;-62
2023/08/16 07:27:29;;;;;;;21.70;8.90;;;;;;;24.38;79.56;100537.14;110115;1278;22213;-62
2023/08/16 07:30:00;;;;;;;17.90;8.50;;;;;;;24.46;79.45;100534.79;109971;1263;22516;-62
2023/08/16 07:32:31;;;;;;;15.30;8.40;;;;;;;24.55;78.85;100538.68;110095;1275;22286;-62
2023/08/16 07:35:03;;;;;;;18.50;9.10;;;;;;;24.61;77.81;100534.53;110112;1278;22260;-62
2023/08/16 07:37:34;;;;;;;14.40;8.60;;;;;;;24.65;78.02;100533.23;110113;1274;22312;-63
2023/08/16 07:40:06;;;;;;;18.10;7.40;;;;;;;24.74;78.25;100539.36;110083;1271;22901;-62
2023/08/16 07:42:36;;;;;;;17.00;8.50;;;;;;;24.84;77.99;100538.71;110125;1273;22171;-62
2023/08/16 07:45:09;;;;;;;15.80;8.30;;;;;;;24.94;77.95;100543.30;110048;1271;23157;-63
2023/08/16 07:47:40;;;;;;;15.40;8.00;;;;;;;25.04;77.41;100547.15;110048;1274;22543;-62
2023/08/16 07:50:11;;;;;;;16.00;7.70;;;;;;;25.13;76.98;100545.84;110036;1271;22353;-62
2023/08/16 07:52:42;;;;;;;14.80;8.40;;;;;;;25.20;76.47;100544.38;110097;1278;22305;-63
2023/08/16 07:55:13;;;;;;;17.10;8.10;;;;;;;25.27;76.77;100542.62;110041;1264;22102;-62
2023/08/16 07:57:44;;;;;;;17.60;8.40;;;;;;;25.36;76.52;100541.38;110115;1267;23527;-62
2023/08/16 08:00:17;;;;;;;15.20;7.80;;;;;;;25.44;76.47;100542.06;110072;1278;22214;-63
2023/08/16 08:02:49;;;;;;;14.60;7.70;;;;;;;25.54;76.38;100545.23;110082;1271;22134;-62
2023/08/16 08:05:20;;;;;;;13.80;7.10;;;;;;;25.65;75.86;100550.30;110114;1278;22119;-62
2023/08/16 08:07:52;;;;;;;16.40;7.20;;;;;;;25.75;75.21;100552.71;110079;1271;22167;-62
2023/08/16 08:10:23;;;;;;;17.20;8.00;;;;;;;25.83;74.92;100552.15;110090;1271;22269;-63
2023/08/16 08:12:54;;;;;;;15.80;6.70;;;;;;;25.93;75.11;100550.80;110088;1271;22775;-63
2023/08/16 08:15:25;;;;;;;14.90;7.10;;;;;;;26.03;74.38;100551.55;110060;1271;22224;-62
2023/08/16 08:17:56;;;;;;;13.80;6.50;;;;;;;26.12;74.58;100554.13;110102;1274;22333;-63
2023/08/16 08:20:26;;;;;;;14.30;6.10;;;;;;;26.23;73.05;100555.93;110053;1278;22923;-63
2023/08/16 08:22:57;;;;;;;14.60;6.70;;;;;;;26.26;72.58;100556.02;110074;1273;22322;-62
2023/08/16 08:25:29;;;;;;;15.50;6.90;;;;;;;26.30;72.48;100554.20;110115;1276;22267;-62
2023/08/16 08:28:00;;;;;;;15.00;6.40;;;;;;;26.35;72.16;100553.60;110093;1271;22325;-61
2023/08/16 08:30:33;;;;;;;14.70;7.20;;;;;;;26.42;72.41;100555.91;110118;1278;22381;-63
2023/08/16 08:33:04;;;;;;;14.70;6.10;;;;;;;26.51;71.72;100558.80;110074;1270;22221;-61
2023/08/16 08:35:35;;;;;;;18.30;6.60;;;;;;;26.55;71.35;100555.56;110064;1274;22157;-62
2023/08/16 08:38:06;;;;;;;14.10;6.50;;;;;;;26.60;70.69;100553.46;110103;1278;23295;-63
2023/08/16 08:40:37;;;;;;;15.40;6.70;;;;;;;26.66;70.66;100558.80;110102;1278;22338;-63
2023/08/16 08:43:10;;;;;;;21.70;7.10;;;;;;;26.74;70.92;100554.80;110147;1278;22289;-63
2023/08/16 08:45:43;;;;;;;14.70;7.70;;;;;;;26.83;70.61;100554.76;110117;1277;22369;-63
2023/08/16 08:48:15;;;;;;;13.10;6.20;;;;;;;26.91;69.90;100560.07;110074;1274;22357;-62
2023/08/16 08:50:47;;;;;;;16.00;7.00;;;;;;;26.99;69.30;100561.15;110105;1271;22412;-63
2023/08/16 08:53:19;;;;;;;13.20;6.00;;;;;;;27.06;68.94;100561.02;110133;1273;22982;-62
2023/08/16 08:55:52;;;;;;;11.20;5.40;;;;;;;27.10;68.49;100563.10;110083;1274;22235;-61
2023/08/16 08:58:24;;;;;;;14.50;5.80;;;;;;;27.15;68.53;100564.55;110105;1278;22189;-66
2023/08/16 09:00:56;;;;;;;13.80;5.60;;;;;;;27.27;68.18;100564.28;110071;1274;22188;-63
2023/08/16 09:03:29;;;;;;;18.30;5.20;;;;;;;27.39;67.97;100566.98;110109;1273;22173;-64
2023/08/16 09:06:03;;;;;;;14.90;5.80;;;;;;;27.49;67.30;100570.23;110082;1271;22408;-62
2023/08/16 09:08:36;;;;;;;12.20;4.90;;;;;;;27.56;65.68;100574.47;110059;1271;22610;-64
2023/08/16 09:11:07;;;;;;;11.40;5.40;;;;;;;27.60;65.35;100575.92;110059;1273;22291;-62
2023/08/16 09:13:39;;;;;;;10.50;4.40;;;;;;;27.61;64.70;100578.82;110083;1278;23082;-62
2023/08/16 09:16:10;;;;;;;13.70;5.50;;;;;;;27.64;64.23;100576.98;110108;1278;22272;-63
2023/08/16 09:18:48;;;;;;;10.30;5.20;;;;;;;27.70;64.12;100576.61;110116;1278;22434;-63
2023/08/16 09:21:24;;;;;;;9.90;5.10;;;;;;;27.78;63.97;100577.58;110124;1278;22215;-63
2023/08/16 09:24:02;;;;;;;12.80;5.00;;;;;;;27.88;64.19;100575.30;110092;1271;22291;-63
2023/08/16 09:26:33;;;;;;;10.80;5.00;;;;;;;27.99;64.14;100576.20;110104;1278;22148;-63
2023/08/16 09:29:06;;;;;;;10.20;5.10;;;;;;;28.05;63.49;100576.69;110052;1278;23058;-62
2023/08/16 09:31:42;;;;;;;10.60;4.80;;;;;;;28.10;62.82;100573.64;110096;1271;22159;-63
2023/08/16 09:34:14;;;;;;;13.00;5.30;;;;;;;28.12;62.33;100571.74;110147;1271;23132;-62
2023/08/16 09:36:48;;;;;;;11.40;3.70;;;;;;;28.17;61.89;100570.34;110139;1276;22152;-62
2023/08/16 09:39:19;;;;;;;11.70;4.60;;;;;;;28.24;60.76;100565.48;110130;1272;23229;-62
2023/08/16 09:41:52;;;;;;;15.20;4.70;;;;;;;28.32;60.87;100562.08;110080;1278;22280;-63
2023/08/16 09:44:26;;;;;;;11.40;3.60;;;;;;;28.39;60.79;100562.48;110040;1271;22337;-63
2023/08/16 09:46:59;;;;;;;11.90;4.40;;;;;;;28.47;60.44;100558.79;110116;1278;22400;-63
2023/08/16 09:49:33;;;;;;;11.90;4.30;;;;;;;28.53;60.26;100559.19;110100;1278;22164;-64
2023/08/16 09:52:10;;;;;;;11.10;4.40;;;;;;;28.59;59.49;100560.81;110105;1278;22180;-63
2023/08/16 09:54:41;;;;;;;10.10;3.60;;;;;;;28.68;59.39;100565.98;110084;1267;22376;-63
2023/08/16 09:57:12;;;;;;;9.40;3.90;;;;;;;28.76;59.03;100560.27;110136;1278;22197;-62
2023/08/16 09:59:44;;;;;;;10.10;3.80;;;;;;;28.83;57.98;100559.83;110132;1276;22339;-63
2023/08/16 10:02:16;;;;;;;12.50;3.90;;;;;;;28.86;57.13;100558.34;110107;1271;22237;-63
2023/08/16 10:04:49;;;;;;;12.10;3.90;;;;;;;28.90;56.50;100557.23;110030;1271;23611;-63
2023/08/16 10:07:20;;;;;;;10.10;3.70;;;;;;;28.94;56.69;100553.67;110067;1273;22267;-63
2023/08/16 10:09:52;;;;;;;13.70;4.20;;;;;;;28.98;56.16;100551.96;110065;1274;22200;-63
2023/08/16 10:12:24;;;;;;;9.10;3.50;;;;;;;29.01;55.10;100554.94;110057;1271;22392;-63
2023/08/16 10:14:55;;;;;;;8.00;3.60;;;;;;;29.03;55.10;100552.29;110012;1271;22339;-63
2023/08/16 10:17:28;;;;;;;8.90;3.40;;;;;;;29.07;54.16;100554.95;110064;1276;22131;-62
2023/08/16 10:20:05;;;;;;;7.70;2.80;;;;;;;29.09;54.12;100558.56;110054;1274;22292;-63
2023/08/16 10:22:42;;;;;;;10.20;3.50;;;;;;;29.10;53.59;100557.65;110006;1272;22430;-64
2023/08/16 10:25:17;;;;;;;10.80;3.70;;;;;;;29.12;53.30;100555.79;110029;1271;22184;-62
2023/08/16 10:27:48;;;;;;;9.80;4.00;;;;;;;29.23;53.70;100554.61;110068;1271;22335;-63
2023/08/16 10:30:22;;;;;;;11.00;3.40;;;;;;;29.35;54.05;100554.23;110081;1276;22126;-64
2023/08/16 10:32:55;;;;;;;12.40;4.80;;;;;;;29.43;52.95;100557.86;110073;1273;23102;-63
2023/08/16 10:35:27;;;;;;;7.80;3.40;;;;;;;29.43;52.28;100556.30;110080;1278;22363;-63
2023/08/16 10:37:58;;;;;;;14.20;3.50;;;;;;;29.42;52.28;100559.13;110042;1279;22348;-63
2023/08/16 10:40:29;;;;;;;11.70;3.50;;;;;;;29.43;51.88;100554.48;110044;1274;22228;-62
2023/08/16 10:43:05;;;;;;;10.50;3.80;;;;;;;29.45;52.02;100557.03;110029;1274;22199;-62
2023/08/16 10:45:37;;;;;;;11.00;3.60;;;;;;;29.49;51.59;100554.06;109982;1271;22300;-62
2023/08/16 10:48:17;;;;;;;11.70;4.10;;;;;;;29.52;51.74;100551.95;110045;1273;22367;-62
2023/08/16 10:50:55;;;;;;;12.30;4.20;;;;;;;29.57;51.94;100547.30;110068;1273;22260;-62
2023/08/16 10:53:29;;;;;;;12.80;4.20;;;;;;;29.61;51.57;100546.01;110104;1272;22941;-63
2023/08/16 10:56:04;;;;;;;10.20;3.70;;;;;;;29.61;51.35;100545.27;110051;1279;22215;-62
2023/08/16 10:58:47;;;;;;;18.00;4.00;;;;;;;29.67;51.68;100546.86;110093;1268;22202;-62
2023/08/16 11:01:18;;;;;;;10.30;3.60;;;;;;;29.77;51.29;100545.33;110031;1278;22151;-62
2023/08/16 11:03:50;;;;;;;8.40;3.20;;;;;;;29.83;50.96;100542.91;110106;1276;22151;-62
2023/08/16 11:06:22;;;;;;;11.80;5.20;;;;;;;29.87;50.87;100541.63;110028;1272;22625;-62
2023/08/16 11:08:53;;;;;;;12.00;5.50;;;;;;;29.90;51.14;100539.86;110082;1273;22430;-62
2023/08/16 11:11:33;;;;;;;12.70;4.60;;;;;;;29.92;51.39;100540.41;110046;1273;22970;-61
2023/08/16 11:14:04;;;;;;;10.80;4.00;;;;;;;29.98;51.65;100539.00;107348;1273;22528;-61
2023/08/16 11:16:35;;;;;;;9.80;4.20;;;;;;;30.02;51.16;100541.78;110052;1271;22190;-61
2023/08/16 11:19:08;;;;;;;9.90;4.30;;;;;;;30.05;51.14;100535.96;110066;1276;22233;-62
2023/08/16 11:21:44;;;;;;;10.40;4.20;;;;;;;30.08;50.99;100536.02;105924;1279;5409803;-62
2023/08/16 11:24:15;;;;;;;8.60;3.90;;;;;;;30.13;50.44;100542.92;110028;1277;23329;-62
2023/08/16 11:26:46;;;;;;;10.40;3.80;;;;;;;30.12;50.83;100542.79;110043;1279;22137;-62
2023/08/16 11:29:20;;;;;;;9.10;3.40;;;;;;;30.15;50.05;100544.23;110078;1279;22373;-62